Boston, Massachusetts
Traffic Map
Current Weather Conditions
Boston, Massachusetts
Clear
Clear

Feels Like: 7°
Wind Chill: Ceiling: Unl
Heat Index: Visibility: 10mi
Dew Point: Wind: 8mph
Humidity: 74% Direction: 270° (W)
Pressure: 29.75in Gusts: 0mph
Raw Report DataKBOS 250954Z 27007KT 10SM CLR 09/04 A2975 RMK AO2 SLP073 T00890044
Traffic Incident Summary
Active as of:
Severity:
Category:
InformationThere was an issue retrieving the traffic information for this location. Please try a different location or try again shortly.
Advertisements
Track Severe Weather on mobile